Time;durP1;ratioP1;P1;durP2;ratioP2;P2;SDS_P1;SDS_P2;PMS_P1;PMS_P2;Temp;Humidity;BMP_temperature;BMP_pressure;BME280_temperature;BME280_humidity;BME280_pressure;Samples;Min_cycle;Max_cycle;Signal;HPM_P1;HPM_P2
2022/07/10 00:00:50;;;;;;;;;;;;;;;21.44;51.12;102890.75;6167288;23;19912;-79
2022/07/10 00:03:15;;;;;;;;;;;;;;;21.45;51.34;102895.09;6220722;23;19908;-79
2022/07/10 00:05:41;;;;;;;;;;;;;;;21.44;51.38;102896.84;6194315;23;19911;-79
2022/07/10 00:08:06;;;;;;;;;;;;;;;21.47;50.97;102893.38;6194487;23;20054;-79
2022/07/10 00:10:33;;;;;;;;;;;;;;;21.46;51.17;102894.25;6176948;23;20320;-79
2022/07/10 00:12:58;;;;;;;;;;;;;;;21.47;51.22;102886.41;6166419;23;19991;-79
2022/07/10 00:15:23;;;;;;;;;;;;;;;21.50;51.07;102893.41;6165655;23;19912;-79
2022/07/10 00:17:49;;;;;;;;;;;;;;;21.53;51.14;102896.03;6165995;23;20385;-79
2022/07/10 00:20:15;;;;;;;;;;;;;;;21.51;51.37;102898.66;6166214;23;19912;-79
2022/07/10 00:22:41;;;;;;;;;;;;;;;21.52;50.78;102897.78;6190922;23;19912;-80
2022/07/10 00:25:09;;;;;;;;;;;;;;;21.47;51.13;102890.75;6166058;23;19912;-79
2022/07/10 00:27:34;;;;;;;;;;;;;;;;;;6191623;23;19907;-79
2022/07/10 00:29:59;;;;;;;;;;;;;;;21.48;50.93;102892.50;6216748;23;19912;-79
2022/07/10 00:32:24;;;;;;;;;;;;;;;21.45;50.86;102882.91;6218443;23;19916;-79
2022/07/10 00:34:50;;;;;;;;;;;;;;;21.43;50.70;102889.00;6192473;23;19919;-79
2022/07/10 00:37:15;;;;;;;;;;;;;;;21.44;50.99;102893.34;6167978;23;19916;-79
2022/07/10 00:39:41;;;;;;;;;;;;;;;21.45;50.81;102887.25;6167143;23;19986;-79
2022/07/10 00:42:10;;;;;;;;;;;;;;;21.44;50.83;102881.13;6192086;23;19914;-80
2022/07/10 00:44:36;;;;;;;;;;;;;;;21.45;51.12;102884.63;6167563;23;19919;-79
2022/07/10 00:47:02;;;;;;;;;;;;;;;21.42;50.54;102882.00;6192373;23;19908;-79
2022/07/10 00:49:27;;;;;;;;;;;;;;;21.42;50.96;102884.63;6194465;23;19956;-79
2022/07/10 00:51:53;;;;;;;;;;;;;;;21.45;50.64;102880.28;6179350;23;19948;-79
2022/07/10 00:54:18;;;;;;;;;;;;;;;21.46;50.74;102879.41;6191129;23;19931;-79
2022/07/10 00:56:44;;;;;;;;;;;;;;;21.44;50.92;102881.13;6166709;23;19912;-79
2022/07/10 00:59:09;;;;;;;;;;;;;;;21.43;50.59;102876.78;6191911;23;19912;-79
2022/07/10 01:01:35;;;;;;;;;;;;;;;21.45;50.68;102879.38;6167241;23;19912;-79
2022/07/10 01:04:00;;;;;;;;;;;;;;;21.45;50.66;102879.38;6192042;23;19908;-78
2022/07/10 01:06:26;;;;;;;;;;;;;;;21.46;50.65;102871.53;6179316;23;19960;-79
2022/07/10 01:08:51;;;;;;;;;;;;;;;21.47;50.44;102869.78;6191672;23;19914;-79
2022/07/10 01:11:16;;;;;;;;;;;;;;;21.44;50.36;102862.78;6171505;23;19912;-79
2022/07/10 01:13:42;;;;;;;;;;;;;;;21.47;50.44;102867.16;6204323;23;19919;-79
2022/07/10 01:16:08;;;;;;;;;;;;;;;21.47;50.36;102867.16;6179631;23;19923;-79
2022/07/10 01:18:33;;;;;;;;;;;;;;;21.46;50.44;102865.44;6173891;23;20244;-79
2022/07/10 01:20:58;;;;;;;;;;;;;;;21.44;50.36;102861.94;6223600;23;19938;-79
2022/07/10 01:23:23;;;;;;;;;;;;;;;21.45;50.43;102855.81;6173384;23;20313;-79
2022/07/10 01:25:49;;;;;;;;;;;;;;;21.44;50.59;102854.94;6197307;23;19930;-79
2022/07/10 01:28:15;;;;;;;;;;;;;;;21.45;50.28;102846.22;6197350;23;19911;-78
2022/07/10 01:30:41;;;;;;;;;;;;;;;21.46;50.13;102847.09;6199410;23;19911;-79
2022/07/10 01:33:06;;;;;;;;;;;;;;;21.45;50.08;102837.47;6179125;23;20458;-78
2022/07/10 01:35:31;;;;;;;;;;;;;;;21.44;50.25;102840.97;6172861;23;19912;-79
2022/07/10 01:37:56;;;;;;;;;;;;;;;21.44;50.06;102839.22;6168708;23;19919;-79
2022/07/10 01:40:22;;;;;;;;;;;;;;;21.44;50.17;102835.72;6194852;23;20316;-79
2022/07/10 01:42:47;;;;;;;;;;;;;;;21.44;50.03;102839.22;6170262;23;19970;-79
2022/07/10 01:45:12;;;;;;;;;;;;;;;21.46;50.05;102836.63;6170114;23;19919;-78
2022/07/10 01:47:37;;;;;;;;;;;;;;;21.45;50.10;102835.75;6194273;23;19912;-79
2022/07/10 01:50:03;;;;;;;;;;;;;;;21.46;49.93;102829.63;6223285;23;19912;-79
2022/07/10 01:52:29;;;;;;;;;;;;;;;21.47;49.92;102835.75;6197999;23;20240;-79
2022/07/10 01:54:54;;;;;;;;;;;;;;;21.48;49.91;102829.66;6172932;23;19919;-79
2022/07/10 01:57:20;;;;;;;;;;;;;;;;;;6170416;23;19991;-79
2022/07/10 01:59:45;;;;;;;;;;;;;;;21.50;49.77;102817.44;6219742;23;19908;-79
2022/07/10 02:02:10;;;;;;;;;;;;;;;21.51;49.84;102821.78;6170457;23;19986;-79
2022/07/10 02:04:41;;;;;;;;;;;;;;;21.52;49.89;102823.56;6171773;23;19964;-79
2022/07/10 02:07:11;;;;;;;;;;;;;;;21.52;49.80;102824.44;6196856;23;20277;-79
2022/07/10 02:09:36;;;;;;;;;;;;;;;21.51;49.54;102820.06;6224330;23;20336;-79
2022/07/10 02:12:01;;;;;;;;;;;;;;;21.51;49.68;102813.94;6174135;23;19919;-79
2022/07/10 02:14:27;;;;;;;;;;;;;;;21.51;49.75;102813.94;6201271;23;20328;-79
2022/07/10 02:16:52;;;;;;;;;;;;;;;21.51;49.43;102824.41;6227155;23;19908;-79
2022/07/10 02:19:18;;;;;;;;;;;;;;;21.50;49.74;102820.94;6167636;23;19958;-79
2022/07/10 02:21:43;;;;;;;;;;;;;;;21.51;49.41;102822.69;6167720;23;19919;-79
2022/07/10 02:24:08;;;;;;;;;;;;;;;21.51;49.37;102822.69;6192470;23;19908;-79
2022/07/10 02:26:34;;;;;;;;;;;;;;;21.53;49.48;102830.53;6167918;23;19994;-80
2022/07/10 02:28:59;;;;;;;;;;;;;;;21.53;49.56;102827.91;6194096;23;20249;-79
2022/07/10 02:31:24;;;;;;;;;;;;;;;21.52;49.30;102823.56;6169786;23;19970;-79
2022/07/10 02:33:49;;;;;;;;;;;;;;;21.53;49.53;102820.94;6171253;23;19916;-79
2022/07/10 02:36:15;;;;;;;;;;;;;;;21.53;49.28;102826.16;6170298;23;19993;-79
2022/07/10 02:38:40;;;;;;;;;;;;;;;21.53;49.49;102822.69;6171329;23;20222;-80
2022/07/10 02:41:05;;;;;;;;;;;;;;;21.51;49.30;102817.47;6196760;23;20240;-80
2022/07/10 02:43:30;;;;;;;;;;;;;;;21.52;49.30;102824.44;6213632;23;19959;-81
2022/07/10 02:45:56;;;;;;;;;;;;;;;21.52;49.37;102816.56;6188694;23;19935;-80
2022/07/10 02:48:21;;;;;;;;;;;;;;;21.53;49.36;102825.31;6209788;23;19911;-80
2022/07/10 02:50:46;;;;;;;;;;;;;;;21.54;49.32;102817.47;6213428;23;19912;-79
2022/07/10 02:53:11;;;;;;;;;;;;;;;21.55;49.58;102815.72;6178964;23;19912;-79
2022/07/10 02:55:37;;;;;;;;;;;;;;;21.56;49.34;102818.34;6178122;23;19916;-79
2022/07/10 02:58:03;;;;;;;;;;;;;;;21.59;49.40;102819.22;6180413;23;19912;-79
2022/07/10 03:00:28;;;;;;;;;;;;;;;21.59;49.59;102822.72;6221697;23;19934;-79
2022/07/10 03:02:54;;;;;;;;;;;;;;;21.57;49.29;102821.84;6196879;23;19908;-79
2022/07/10 03:05:19;;;;;;;;;;;;;;;21.57;49.41;102816.59;6197054;23;19912;-79
2022/07/10 03:07:45;;;;;;;;;;;;;;;21.56;49.26;102818.34;6172460;23;19995;-79
2022/07/10 03:10:10;;;;;;;;;;;;;;;21.57;49.45;102817.47;6197813;23;19915;-79
2022/07/10 03:12:36;;;;;;;;;;;;;;;21.60;49.30;102813.09;6196788;23;19908;-79
2022/07/10 03:15:02;;;;;;;;;;;;;;;21.57;49.11;102812.22;6172727;23;19912;-79
2022/07/10 03:17:27;;;;;;;;;;;;;;;21.55;49.25;102818.31;6225690;23;19911;-79
2022/07/10 03:19:53;;;;;;;;;;;;;;;21.55;49.26;102815.72;6224809;23;19908;-79
2022/07/10 03:22:18;;;;;;;;;;;;;;;21.56;49.24;102813.09;6198492;23;19943;-79
2022/07/10 03:24:46;;;;;;;;;;;;;;;21.57;49.29;102814.84;6173987;23;19943;-79
2022/07/10 03:27:11;;;;;;;;;;;;;;;21.55;49.19;102803.47;6223171;23;20279;-79
2022/07/10 03:29:37;;;;;;;;;;;;;;;21.52;49.11;102798.25;6194968;23;19916;-79
2022/07/10 03:32:02;;;;;;;;;;;;;;;21.52;49.06;102794.75;6168682;23;19920;-79
2022/07/10 03:34:27;;;;;;;;;;;;;;;21.54;49.38;102790.41;6219968;23;19915;-79
2022/07/10 03:36:52;;;;;;;;;;;;;;;21.56;49.22;102794.78;6167980;23;19954;-79
2022/07/10 03:39:18;;;;;;;;;;;;;;;21.55;49.17;102789.50;6202037;23;19912;-79
2022/07/10 03:41:43;;;;;;;;;;;;;;;21.56;49.39;102792.16;6218172;23;19908;-79
2022/07/10 03:44:08;;;;;;;;;;;;;;;21.57;49.05;102793.88;6166741;23;19919;-79
2022/07/10 03:46:33;;;;;;;;;;;;;;;21.58;49.04;102784.31;6166579;23;19939;-79
2022/07/10 03:48:59;;;;;;;;;;;;;;;21.59;49.25;102787.78;6166948;23;19958;-79
2022/07/10 03:51:24;;;;;;;;;;;;;;;21.61;49.08;102791.31;6175922;23;19919;-80
2022/07/10 03:53:49;;;;;;;;;;;;;;;21.59;49.09;102782.56;6207205;23;19912;-80
2022/07/10 03:57:53;;;;;;;;;;;;;;;21.60;49.01;102782.56;6182548;23;19912;-79
2022/07/10 03:58:59;;;;;;;;;;;;;;;21.63;49.05;102776.47;6203037;23;19919;-79
2022/07/10 04:01:25;;;;;;;;;;;;;;;21.62;49.06;102770.31;6173607;23;19915;-79
2022/07/10 04:03:50;;;;;;;;;;;;;;;21.62;48.88;102772.06;6198756;23;19912;-79
2022/07/10 04:06:15;;;;;;;;;;;;;;;21.61;48.83;102779.06;6200099;23;19960;-79
2022/07/10 04:08:40;;;;;;;;;;;;;;;21.61;48.83;102778.19;6174332;23;19912;-79
2022/07/10 04:11:06;;;;;;;;;;;;;;;21.58;49.08;102781.69;6198767;23;20002;-79
2022/07/10 04:13:31;;;;;;;;;;;;;;;21.59;49.12;102775.56;6223246;23;19912;-79
2022/07/10 04:15:56;;;;;;;;;;;;;;;21.60;48.88;102782.56;6172061;23;19923;-79
2022/07/10 04:18:22;;;;;;;;;;;;;;;21.61;48.91;102783.44;6170895;23;19912;-79
2022/07/10 04:20:47;;;;;;;;;;;;;;;21.62;48.98;102793.03;6178491;23;19919;-79
2022/07/10 04:23:12;;;;;;;;;;;;;;;21.63;48.88;102786.94;6192229;23;19908;-79
2022/07/10 04:25:38;;;;;;;;;;;;;;;21.61;48.92;102791.31;6191930;23;19912;-79
2022/07/10 04:28:03;;;;;;;;;;;;;;;21.63;48.98;102792.19;6166418;23;19966;-79
2022/07/10 04:30:28;;;;;;;;;;;;;;;21.65;48.97;102793.94;6192300;23;19915;-79
2022/07/10 04:32:53;;;;;;;;;;;;;;;21.63;48.77;102790.44;6174088;23;19964;-78
2022/07/10 04:35:19;;;;;;;;;;;;;;;21.63;49.20;102794.81;6178332;23;19923;-79
2022/07/10 04:37:44;;;;;;;;;;;;;;;21.64;48.84;102804.41;6171767;23;19912;-78
2022/07/10 04:40:10;;;;;;;;;;;;;;;21.67;48.75;102796.56;6195274;23;19912;-79
2022/07/10 04:42:35;;;;;;;;;;;;;;;21.66;48.92;102798.28;6195585;23;19914;-79
2022/07/10 04:45:02;;;;;;;;;;;;;;;21.66;49.05;102802.66;6170539;23;19916;-79
2022/07/10 04:47:27;;;;;;;;;;;;;;;21.67;48.89;102796.56;6171196;23;20101;-78
2022/07/10 04:49:52;;;;;;;;;;;;;;;21.66;48.75;102802.66;6197322;23;19916;-79
2022/07/10 04:52:18;;;;;;;;;;;;;;;21.68;49.03;102807.03;6174322;23;19912;-79
2022/07/10 04:54:43;;;;;;;;;;;;;;;21.68;48.89;102809.66;6174204;23;19912;-79
2022/07/10 04:57:08;;;;;;;;;;;;;;;21.71;48.86;102806.16;6199213;23;20320;-79
2022/07/10 05:23:23;;;;;;;;;;;;;;;22.05;48.65;102801.06;6269996;22;19900;-82
2022/07/10 05:29:40;;;;;;;;;;;;;;;22.05;48.99;102806.31;6281858;23;20040;-81
2022/07/10 05:32:06;;;;;;;;;;;;;;;22.07;48.99;102796.69;6235947;23;19907;-80
2022/07/10 05:34:37;;;;;;;;;;;;;;;22.10;49.23;102805.47;6206095;23;20248;-79
2022/07/10 05:37:03;;;;;;;;;;;;;;;22.11;48.97;102798.47;6230576;23;19908;-80
2022/07/10 05:39:28;;;;;;;;;;;;;;;22.13;49.13;102792.34;6230152;23;20339;-80
2022/07/10 05:41:55;;;;;;;;;;;;;;;22.19;49.23;102789.75;6231484;23;19963;-80
2022/07/10 05:44:21;;;;;;;;;;;;;;;22.22;48.83;102794.13;6261558;23;19918;-80
2022/07/10 05:46:46;;;;;;;;;;;;;;;22.22;48.78;102788.00;6253308;23;19986;-80
2022/07/10 05:49:11;;;;;;;;;;;;;;;22.12;48.19;102792.34;6230122;23;19938;-81
2022/07/10 05:51:37;;;;;;;;;;;;;;;22.07;48.46;102794.06;6227349;23;19998;-81
2022/07/10 05:54:03;;;;;;;;;;;;;;;22.10;49.06;102783.59;6226646;23;19908;-81
2022/07/10 05:56:28;;;;;;;;;;;;;;;22.14;48.78;102788.84;6204637;23;20291;-81
2022/07/10 05:58:55;;;;;;;;;;;;;;;22.19;48.82;102791.50;6232414;23;19937;-80
2022/07/10 08:47:44;;;;;;;;;;;;;;;22.57;46.91;102790.69;6271133;22;19910;-84
2022/07/10 08:53:24;;;;;;;;;;;;;;;22.55;47.29;102790.69;6274125;23;19915;-83
2022/07/10 09:04:59;;;;;;;;;;;;;;;22.46;47.97;102801.16;6273150;23;19960;-84
2022/07/10 19:07:54;;;;;;;;;;;;;;;22.95;47.65;102575.41;6229325;22;19931;-81
2022/07/10 19:10:41;;;;;;;;;;;;;;;22.96;47.53;102576.25;6234609;23;19920;-83
2022/07/10 19:16:31;;;;;;;;;;;;;;;22.95;47.76;102580.66;6122389;23;19949;-83
2022/07/10 19:46:08;;;;;;;;;;;;;;;22.83;48.46;102564.94;6242118;22;19919;-81
2022/07/10 19:48:36;;;;;;;;;;;;;;;22.79;48.28;102558.81;6248594;23;19927;-82
2022/07/10 20:13:32;;;;;;;;;;;;;;;22.71;48.71;102573.75;6244247;22;19903;-84
2022/07/10 21:06:27;;;;;;;;;;;;;;;22.58;48.94;102586.03;6232970;22;19922;-84
2022/07/10 21:09:37;;;;;;;;;;;;;;;22.58;49.02;102577.25;6211417;23;19924;-86
2022/07/10 21:37:25;;;;;;;;;;;;;;;22.56;49.45;102592.16;6266327;22;19941;-81
2022/07/10 21:39:55;;;;;;;;;;;;;;;22.55;49.23;102587.78;6277420;22;19907;-81
2022/07/10 21:42:24;;;;;;;;;;;;;;;22.57;49.30;102583.41;6302253;22;19911;-79
2022/07/10 23:34:37;;;;;;;;;;;;;;;22.57;50.01;102547.53;5206256;22;24006456;-84
2022/07/10 23:37:54;;;;;;;;;;;;;;;22.56;49.92;102550.19;6304291;22;19910;-85
